Time;durP1;ratioP1;P1;durP2;ratioP2;P2;SDS_P1;SDS_P2;PMS_P1;PMS_P2;Temp;Humidity;BMP_temperature;BMP_pressure;BME280_temperature;BME280_humidity;BME280_pressure;Samples;Min_cycle;Max_cycle;Signal;HPM_P1;HPM_P2
2022/01/16 00:04:06;;;;;;;54.85;32.33;;;5.70;72.90;;;-142.21;100.00;112049.66;4995660;28;20258;-74
2022/01/16 00:04:59;;;;;;;49.63;31.13;;;5.70;73.60;;;-142.21;100.00;112049.66;4994709;28;20215;-76
2022/01/16 00:07:26;;;;;;;54.20;30.42;;;5.60;73.80;;;-142.21;100.00;112049.66;4993585;28;20350;-75
2022/01/16 00:09:54;;;;;;;47.63;28.58;;;5.50;74.10;;;-142.21;100.00;112049.66;4994682;28;20239;-75
2022/01/16 00:12:23;;;;;;;55.17;31.10;;;5.30;74.70;;;-142.21;100.00;112049.66;4993213;28;20295;-74
2022/01/16 00:14:50;;;;;;;52.83;27.80;;;5.30;75.30;;;-142.21;100.00;112049.66;4994145;28;20203;-75
2022/01/16 00:17:19;;;;;;;53.42;29.77;;;5.30;75.40;;;-142.21;100.00;112049.66;4959256;28;20263;-75
2022/01/16 00:19:46;;;;;;;53.85;29.25;;;5.10;76.20;;;-142.21;100.00;112049.66;4994117;28;20287;-75
2022/01/16 00:22:16;;;;;;;51.63;27.92;;;5.10;75.90;;;-142.21;100.00;112049.66;4995210;28;20204;-75
2022/01/16 00:24:43;;;;;;;52.63;27.42;;;5.20;75.50;;;-142.21;100.00;112049.66;4995469;28;20204;-77
2022/01/16 00:27:10;;;;;;;48.17;26.50;;;5.30;75.30;;;-142.21;100.00;112049.66;5018045;28;20188;-74
2022/01/16 00:29:38;;;;;;;47.92;27.38;;;5.30;75.40;;;-142.21;100.00;112049.66;5015929;28;20204;-74
2022/01/16 00:32:06;;;;;;;46.45;26.95;;;5.20;75.30;;;-142.21;100.00;112049.66;4996859;28;20239;-73
2022/01/16 00:34:33;;;;;;;47.85;25.80;;;5.20;76.00;;;-142.21;100.00;112049.66;4993944;28;20291;-75
2022/01/16 00:37:00;;;;;;;47.35;27.40;;;5.20;75.50;;;-142.21;100.00;112049.66;4994503;28;20291;-75
2022/01/16 00:39:29;;;;;;;46.17;26.10;;;5.30;75.30;;;-142.21;100.00;112049.66;4993586;28;20291;-76
2022/01/16 00:41:57;;;;;;;46.78;25.95;;;5.00;75.80;;;-142.21;100.00;112049.66;4994216;28;20208;-75
2022/01/16 00:44:24;;;;;;;43.58;24.75;;;5.10;76.40;;;-142.21;100.00;112049.66;4993319;28;20308;-76
2022/01/16 00:46:51;;;;;;;43.55;24.88;;;5.00;76.40;;;-142.21;100.00;112049.66;4994029;28;20292;-75
2022/01/16 00:49:19;;;;;;;48.80;26.33;;;5.10;76.40;;;-142.21;100.00;112049.66;4992851;28;20314;-74
2022/01/16 00:51:46;;;;;;;50.50;26.70;;;5.00;76.40;;;-142.21;100.00;112049.66;4989569;28;20318;-75
2022/01/16 00:54:14;;;;;;;42.70;25.67;;;4.90;77.00;;;-142.21;100.00;112049.66;4958397;28;20220;-76
2022/01/16 00:56:42;;;;;;;45.38;25.50;;;4.90;77.50;;;-142.21;100.00;112049.66;4993616;28;20211;-75
2022/01/16 00:59:10;;;;;;;43.75;25.05;;;4.80;77.60;;;-142.21;100.00;112049.66;4993984;28;20200;-76
2022/01/16 01:01:37;;;;;;;38.60;21.92;;;4.80;78.10;;;-142.21;100.00;112049.66;4993647;28;20299;-75
2022/01/16 01:04:04;;;;;;;38.92;23.35;;;4.70;77.80;;;-142.21;100.00;112049.66;4993507;28;20239;-75
2022/01/16 01:06:32;;;;;;;36.30;22.70;;;4.80;77.70;;;-142.21;100.00;112049.66;4993936;28;20565;-74
2022/01/16 01:08:59;;;;;;;36.63;23.05;;;4.80;77.20;;;-142.21;100.00;112049.66;4993796;28;20302;-75
2022/01/16 01:11:29;;;;;;;43.15;24.40;;;4.70;77.60;;;-142.21;100.00;112049.66;4993821;28;20200;-75
2022/01/16 01:14:15;;;;;;;40.65;22.85;;;4.60;78.20;;;-142.21;100.00;112049.66;4993095;28;20204;-74
2022/01/16 01:16:52;;;;;;;40.80;22.75;;;4.60;78.10;;;-142.21;100.00;112049.66;4989153;28;20196;-73
2022/01/16 01:19:23;;;;;;;42.83;24.27;;;4.60;78.20;;;-142.21;100.00;112049.66;4987938;28;20203;-75
2022/01/16 01:21:51;;;;;;;42.92;23.60;;;4.70;77.80;;;-142.21;100.00;112049.66;4990038;28;20286;-75
2022/01/16 01:24:18;;;;;;;36.80;22.75;;;4.70;77.60;;;-142.21;100.00;112049.66;4993725;28;20226;-73
2022/01/16 01:26:54;;;;;;;42.15;23.00;;;4.80;77.40;;;-142.21;100.00;112049.66;4993412;28;20208;-74
2022/01/16 01:29:23;;;;;;;37.67;21.45;;;4.90;77.30;;;-142.21;100.00;112049.66;4991003;28;20243;-74
2022/01/16 01:31:52;;;;;;;39.83;21.90;;;4.80;77.20;;;-142.21;100.00;112049.66;4992696;28;20239;-74
2022/01/16 01:34:19;;;;;;;46.13;25.73;;;4.70;76.90;;;-142.21;100.00;112049.66;4993469;28;20218;-74
2022/01/16 01:36:48;;;;;;;42.15;24.20;;;4.80;77.90;;;-142.21;100.00;112049.66;4993223;28;20584;-75
2022/01/16 01:39:16;;;;;;;40.63;23.42;;;4.80;77.10;;;-142.21;100.00;112049.66;4992975;28;20204;-75
2022/01/16 01:41:46;;;;;;;37.80;22.65;;;4.80;76.90;;;-142.21;100.00;112049.66;4989304;28;20200;-76
2022/01/16 01:52:29;;;;;;;37.15;21.58;;;4.80;75.70;;;-142.21;100.00;112049.66;4992811;28;20211;-75
2022/01/16 01:54:56;;;;;;;37.83;23.10;;;4.80;76.10;;;-142.21;100.00;112049.66;4992568;28;20227;-75
2022/01/16 01:57:24;;;;;;;38.35;21.83;;;4.70;76.40;;;-142.21;100.00;112049.66;4990805;28;20299;-74
2022/01/16 01:59:51;;;;;;;37.28;21.48;;;4.80;77.10;;;-142.21;100.00;112049.66;4992911;28;20204;-75
2022/01/16 02:02:20;;;;;;;41.38;21.95;;;4.90;75.80;;;-142.21;100.00;112049.66;4975486;28;20208;-75
2022/01/16 02:04:47;;;;;;;38.45;21.42;;;4.80;75.20;;;-142.21;100.00;112049.66;4993782;28;20238;-75
2022/01/16 02:07:14;;;;;;;39.05;21.70;;;4.70;75.20;;;-142.21;100.00;112049.66;4969246;28;20224;-76
2022/01/16 02:09:42;;;;;;;39.83;21.83;;;4.50;75.90;;;-142.21;100.00;112049.66;4993490;28;20228;-75
2022/01/16 02:12:11;;;;;;;40.25;20.92;;;4.50;76.30;;;-142.21;100.00;112049.66;4992857;28;20298;-75
2022/01/16 02:14:53;;;;;;;47.70;22.85;;;4.40;76.40;;;-142.21;100.00;112049.66;4994062;28;20663;-76
2022/01/16 02:28:47;;;;;;;41.53;21.05;;;4.10;77.00;;;-142.21;100.00;112049.66;4991420;28;20266;-76
2022/01/16 02:31:18;;;;;;;40.90;21.60;;;4.20;76.70;;;-142.21;100.00;112049.66;4992913;28;20196;-75
2022/01/16 02:36:34;;;;;;;42.47;21.83;;;4.20;76.00;;;-142.21;100.00;112049.66;4994510;28;20226;-76
2022/01/16 02:39:09;;;;;;;34.42;20.45;;;4.30;75.50;;;-142.21;100.00;112049.66;4938285;28;20208;-75
2022/01/16 02:41:37;;;;;;;39.22;21.75;;;4.30;75.50;;;-142.21;100.00;112049.66;4991339;28;20322;-76
2022/01/16 02:44:17;;;;;;;34.53;20.77;;;4.20;75.80;;;-142.21;100.00;112049.66;4996166;28;20262;-75
2022/01/16 02:46:46;;;;;;;34.45;20.60;;;4.30;75.60;;;-142.21;100.00;112049.66;4996214;28;20286;-76
2022/01/16 02:49:23;;;;;;;32.95;19.40;;;4.20;75.40;;;-142.21;100.00;112049.66;4997026;28;20689;-73
2022/01/16 02:51:53;;;;;;;34.67;20.73;;;4.20;76.00;;;-142.21;100.00;112049.66;4990155;28;20188;-73
2022/01/16 02:54:24;;;;;;;32.45;19.92;;;4.00;76.20;;;-142.21;100.00;112049.66;4999137;28;20247;-74
2022/01/16 02:56:51;;;;;;;37.13;20.08;;;4.00;76.10;;;-142.21;100.00;112049.66;4997446;28;20214;-75
2022/01/16 02:59:20;;;;;;;35.60;20.23;;;3.90;76.00;;;-142.21;100.00;112049.66;4997290;28;20296;-76
2022/01/16 03:01:47;;;;;;;37.85;20.17;;;3.90;76.00;;;-142.21;100.00;112049.66;4993253;28;20600;-76
2022/01/16 03:04:16;;;;;;;32.17;20.02;;;3.90;76.10;;;-142.21;100.00;112049.66;4995269;28;20204;-76
2022/01/16 03:06:44;;;;;;;35.72;20.35;;;3.80;76.30;;;-142.21;100.00;112049.66;4996656;28;20227;-77
2022/01/16 03:09:11;;;;;;;30.00;18.83;;;3.80;76.70;;;-142.21;100.00;112049.66;4996449;28;20224;-76
2022/01/16 03:11:47;;;;;;;31.60;19.30;;;3.70;76.40;;;-142.21;100.00;112049.66;4995982;28;20235;-76
2022/01/16 03:14:18;;;;;;;35.80;19.83;;;3.80;77.00;;;-142.21;100.00;112049.66;4980223;28;20255;-76
2022/01/16 03:16:49;;;;;;;36.92;18.80;;;3.90;76.60;;;-142.21;100.00;112049.66;4976789;28;20292;-75
2022/01/16 03:22:04;;;;;;;34.97;19.25;;;4.00;75.40;;;-142.21;100.00;112049.66;4989422;28;20551;-74
2022/01/16 03:24:37;;;;;;;37.60;19.80;;;4.00;75.60;;;-142.21;100.00;112049.66;4996001;28;20204;-77
2022/01/16 03:27:09;;;;;;;34.22;19.88;;;4.00;75.50;;;-142.21;100.00;112049.66;4989267;28;20220;-76
2022/01/16 03:29:38;;;;;;;33.47;19.48;;;4.10;75.30;;;-142.21;100.00;112049.66;4991851;28;20251;-75
2022/01/16 03:32:09;;;;;;;38.58;20.85;;;4.10;75.20;;;-142.21;100.00;112049.66;4989169;28;20206;-76
2022/01/16 03:34:37;;;;;;;33.80;20.25;;;4.20;74.70;;;-142.21;100.00;112049.66;4994749;28;20287;-76
2022/01/16 03:37:05;;;;;;;36.67;21.23;;;4.10;74.40;;;-142.21;100.00;112049.66;4994635;28;20204;-75
2022/01/16 03:39:33;;;;;;;34.65;20.45;;;4.00;74.50;;;-142.21;100.00;112049.66;4995510;28;20231;-73
2022/01/16 03:42:01;;;;;;;41.40;21.90;;;3.90;74.80;;;-142.21;100.00;112049.66;4995171;28;20208;-74
2022/01/16 03:44:30;;;;;;;34.88;21.23;;;3.80;75.10;;;-142.21;100.00;112049.66;4995725;28;20220;-74
2022/01/16 03:46:58;;;;;;;42.65;23.00;;;3.90;75.10;;;-142.21;100.00;112049.66;4994967;28;20203;-76
2022/01/16 03:49:29;;;;;;;40.63;22.42;;;3.90;75.10;;;-142.21;100.00;112049.66;4995055;28;20223;-75
2022/01/16 03:51:58;;;;;;;35.03;21.60;;;3.90;75.30;;;-142.21;100.00;112049.66;4986942;28;20291;-76
2022/01/16 03:54:30;;;;;;;39.75;21.85;;;4.00;75.10;;;-142.21;100.00;112049.66;4994760;28;20235;-75
2022/01/16 03:57:00;;;;;;;42.13;22.75;;;3.90;74.90;;;-142.21;100.00;112049.66;4995615;28;20207;-75
2022/01/16 03:59:29;;;;;;;42.22;22.70;;;3.80;74.90;;;-142.21;100.00;112049.66;4994305;28;20200;-74
2022/01/16 04:01:56;;;;;;;44.28;23.20;;;3.60;75.70;;;-142.21;100.00;112049.66;4994955;28;20255;-75
2022/01/16 04:04:24;;;;;;;44.00;22.40;;;3.40;76.20;;;-142.21;100.00;112049.66;4994552;28;20295;-75
2022/01/16 04:06:51;;;;;;;43.17;23.33;;;3.40;76.60;;;-142.21;100.00;112049.66;4994969;28;20290;-75
2022/01/16 04:09:18;;;;;;;49.08;23.98;;;3.50;76.80;;;-142.21;100.00;112049.66;4994251;28;20307;-74
2022/01/16 04:11:51;;;;;;;38.40;20.67;;;3.60;76.60;;;-142.21;100.00;112049.66;4995012;28;20206;-73
2022/01/16 04:14:24;;;;;;;42.40;22.45;;;3.60;76.40;;;-142.21;100.00;112049.66;4994497;28;20590;-75
2022/01/16 04:16:53;;;;;;;43.72;23.35;;;3.60;76.30;;;-142.21;100.00;112049.66;4994919;28;20214;-75
2022/01/16 04:19:21;;;;;;;45.15;22.30;;;3.60;76.30;;;-142.21;100.00;112049.66;4993763;28;20657;-75
2022/01/16 04:21:48;;;;;;;43.95;23.02;;;3.50;76.30;;;-142.21;100.00;112049.66;4993774;28;20683;-74
2022/01/16 04:24:15;;;;;;;46.13;24.10;;;3.50;76.70;;;-142.21;100.00;112049.66;4993591;28;20744;-75
2022/01/16 04:26:42;;;;;;;44.13;23.75;;;3.40;76.70;;;-142.21;100.00;112049.66;4992998;28;20291;-74
2022/01/16 04:29:09;;;;;;;44.58;23.17;;;3.50;76.70;;;-142.21;100.00;112049.66;4989892;28;20270;-74
2022/01/16 04:31:36;;;;;;;41.22;20.83;;;3.50;76.60;;;-142.21;100.00;112049.66;4985204;28;20214;-75
2022/01/16 04:34:05;;;;;;;43.97;23.00;;;3.50;76.30;;;-142.21;100.00;112049.66;4994164;28;20307;-75
2022/01/16 04:36:32;;;;;;;44.85;22.48;;;3.50;76.30;;;-142.21;100.00;112049.66;4994142;28;20299;-75
2022/01/16 04:38:59;;;;;;;44.55;22.70;;;3.50;76.60;;;-142.21;100.00;112049.66;4994943;28;20299;-75
2022/01/16 04:44:11;;;;;;;55.63;23.52;;;3.60;75.80;;;-142.21;100.00;112049.66;4990930;28;20323;-74
2022/01/16 04:46:38;;;;;;;40.53;23.17;;;3.60;76.00;;;-142.21;100.00;112049.66;4986629;28;20254;-76
2022/01/16 04:49:07;;;;;;;52.55;24.88;;;3.60;76.30;;;-142.21;100.00;112049.66;4995158;28;20310;-74
2022/01/16 04:51:34;;;;;;;53.05;24.08;;;3.60;77.00;;;-142.21;100.00;112049.66;4994323;28;20199;-73
2022/01/16 04:54:01;;;;;;;62.92;25.17;;;3.30;77.30;;;-142.21;100.00;112049.66;4993713;28;20728;-75
2022/01/16 04:56:29;;;;;;;54.00;24.02;;;3.20;78.40;;;-142.21;100.00;112049.66;4994317;28;20204;-76
2022/01/16 04:58:56;;;;;;;50.85;25.15;;;3.00;78.80;;;-142.21;100.00;112049.66;4994667;28;20274;-74
2022/01/16 05:01:23;;;;;;;51.83;25.27;;;3.00;78.70;;;-142.21;100.00;112049.66;4995016;28;20212;-76
2022/01/16 05:03:51;;;;;;;45.95;24.15;;;3.00;78.90;;;-142.21;100.00;112049.66;5008496;28;20192;-72
2022/01/16 05:06:21;;;;;;;59.42;24.63;;;2.90;79.70;;;-142.21;100.00;112049.66;5017732;28;20184;-75
2022/01/16 05:08:49;;;;;;;63.63;24.58;;;2.90;80.00;;;-142.21;100.00;112049.66;4998886;28;20310;-75
2022/01/16 05:11:21;;;;;;;59.13;25.35;;;3.00;79.60;;;-142.21;100.00;112049.66;4994615;28;20251;-75
2022/01/16 05:16:37;;;;;;;47.17;23.60;;;2.90;80.10;;;-142.21;100.00;112049.66;4974637;28;20255;-75
2022/01/16 05:19:07;;;;;;;38.38;22.02;;;2.90;79.60;;;-142.21;100.00;112049.66;4992974;28;20194;-74
2022/01/16 05:21:37;;;;;;;42.88;21.98;;;3.00;79.20;;;-142.21;100.00;112049.66;4989932;28;20211;-73
2022/01/16 05:24:09;;;;;;;38.67;21.38;;;3.20;78.90;;;-142.21;100.00;112049.66;4987987;28;20196;-75
2022/01/16 05:26:37;;;;;;;45.05;23.17;;;3.20;78.90;;;-142.21;100.00;112049.66;4993760;28;20552;-74
2022/01/16 05:29:04;;;;;;;48.83;23.10;;;3.20;79.00;;;-142.21;100.00;112049.66;4993015;28;20258;-74
2022/01/16 05:31:32;;;;;;;38.75;21.23;;;3.20;79.20;;;-142.21;100.00;112049.66;4993787;28;20283;-75
2022/01/16 05:33:59;;;;;;;37.55;20.52;;;3.20;78.80;;;-142.21;100.00;112049.66;4993989;28;20204;-72
2022/01/16 05:36:26;;;;;;;37.78;21.33;;;3.10;78.50;;;-142.21;100.00;112049.66;4993089;28;20330;-75
2022/01/16 05:38:55;;;;;;;38.78;20.35;;;3.20;78.00;;;-142.21;100.00;112049.66;4952546;28;20290;-75
2022/01/16 05:41:24;;;;;;;37.42;19.80;;;3.20;78.30;;;-142.21;100.00;112049.66;4987272;28;20244;-76
2022/01/16 05:43:52;;;;;;;41.67;20.92;;;3.20;78.20;;;-142.21;100.00;112049.66;4987506;28;20331;-76
2022/01/16 05:46:20;;;;;;;36.78;20.15;;;3.20;78.20;;;-142.21;100.00;112049.66;4992602;28;20204;-75
2022/01/16 05:48:48;;;;;;;41.90;21.02;;;2.90;79.40;;;-142.21;100.00;112049.66;4993606;28;20206;-74
2022/01/16 05:51:15;;;;;;;34.15;19.33;;;2.90;79.30;;;-142.21;100.00;112049.66;4993293;28;20531;-74
2022/01/16 05:53:44;;;;;;;38.25;19.42;;;2.90;78.90;;;-142.21;100.00;112049.66;4958701;28;20977;-75
2022/01/16 05:56:13;;;;;;;37.42;19.80;;;2.90;79.60;;;-142.21;100.00;112049.66;4992766;28;20212;-77
2022/01/16 05:58:40;;;;;;;35.53;21.02;;;2.90;79.10;;;-142.21;100.00;112049.66;4992457;28;20204;-74
2022/01/16 06:01:08;;;;;;;36.67;19.67;;;3.00;79.00;;;-142.21;100.00;112049.66;4992963;28;20262;-74
2022/01/16 06:03:35;;;;;;;32.13;18.92;;;2.90;78.90;;;-142.21;100.00;112049.66;4992640;28;20230;-76
2022/01/16 06:06:02;;;;;;;39.63;19.38;;;2.90;78.80;;;-142.21;100.00;112049.66;4993036;28;20286;-75
2022/01/16 06:08:29;;;;;;;37.30;19.80;;;3.00;79.20;;;-142.21;100.00;112049.66;4993288;28;20211;-75
2022/01/16 06:10:56;;;;;;;34.58;19.05;;;2.70;79.40;;;-142.21;100.00;112049.66;4993039;28;20239;-75
2022/01/16 06:13:25;;;;;;;31.88;19.73;;;2.70;79.50;;;-142.21;100.00;112049.66;4976025;28;20214;-74
2022/01/16 06:15:52;;;;;;;29.77;18.60;;;2.80;79.20;;;-142.21;100.00;112049.66;4991275;28;20302;-75
2022/01/16 06:18:19;;;;;;;32.75;19.38;;;2.90;78.70;;;-142.21;100.00;112049.66;4993808;28;20250;-74
2022/01/16 06:20:47;;;;;;;34.25;18.90;;;2.90;78.50;;;-142.21;100.00;112049.66;4993357;28;20192;-77
2022/01/16 06:23:16;;;;;;;29.90;17.85;;;3.00;78.60;;;-142.21;100.00;112049.66;4992695;28;20203;-75
2022/01/16 06:25:44;;;;;;;29.33;17.35;;;3.00;77.70;;;-142.21;100.00;112049.66;4992306;28;20224;-76
2022/01/16 06:28:12;;;;;;;28.63;17.02;;;3.10;77.40;;;-142.21;100.00;112049.66;4985169;28;20208;-74
2022/01/16 06:30:40;;;;;;;33.13;19.02;;;3.20;77.20;;;-142.21;100.00;112049.66;4992654;28;20258;-75
2022/01/16 06:33:09;;;;;;;30.70;18.50;;;3.20;77.00;;;-142.21;100.00;112049.66;4992834;28;20291;-75
2022/01/16 06:35:38;;;;;;;30.13;18.42;;;3.20;77.10;;;-142.21;100.00;112049.66;4992220;28;20231;-74
2022/01/16 06:38:05;;;;;;;29.42;17.67;;;3.20;77.10;;;-142.21;100.00;112049.66;4972925;28;20298;-74
2022/01/16 06:40:33;;;;;;;34.85;19.52;;;3.20;77.00;;;-142.21;100.00;112049.66;4991768;28;20215;-75
2022/01/16 06:43:00;;;;;;;33.65;18.40;;;3.20;76.70;;;-142.21;100.00;112049.66;4991125;28;20259;-76
2022/01/16 06:45:29;;;;;;;31.23;18.15;;;3.30;76.60;;;-142.21;100.00;112049.66;4990140;28;20200;-75
2022/01/16 06:47:57;;;;;;;33.10;18.80;;;3.20;76.60;;;-142.21;100.00;112049.66;4988440;28;20223;-75
2022/01/16 06:50:24;;;;;;;32.17;18.08;;;3.40;76.60;;;-142.21;100.00;112049.66;4978191;28;20339;-76
2022/01/16 06:52:52;;;;;;;31.75;19.02;;;3.30;76.60;;;-142.21;100.00;112049.66;4992799;28;20214;-76
2022/01/16 06:55:19;;;;;;;33.72;19.00;;;3.40;77.30;;;-142.21;100.00;112049.66;4991489;28;20240;-75
2022/01/16 06:57:46;;;;;;;34.72;19.13;;;3.30;76.60;;;-142.21;100.00;112049.66;4992625;28;20291;-75
2022/01/16 07:00:14;;;;;;;31.42;19.20;;;3.20;76.60;;;-142.21;100.00;112049.66;4992044;28;20210;-76
2022/01/16 07:02:41;;;;;;;32.63;19.17;;;3.20;77.20;;;-142.21;100.00;112049.66;4992789;28;20224;-75
2022/01/16 07:05:11;;;;;;;31.63;18.88;;;3.30;76.80;;;-142.21;100.00;112049.66;4992004;28;20246;-75
2022/01/16 07:07:38;;;;;;;29.05;18.63;;;3.30;76.80;;;-142.21;100.00;112049.66;4992088;28;20204;-75
2022/01/16 07:10:07;;;;;;;29.92;17.40;;;3.20;76.70;;;-142.21;100.00;112049.66;4987534;28;20220;-75
2022/01/16 07:12:34;;;;;;;28.30;18.30;;;3.30;76.80;;;-142.21;100.00;112049.66;4992117;28;20231;-75
2022/01/16 07:15:01;;;;;;;28.00;18.23;;;3.40;76.40;;;-142.21;100.00;112049.66;4979313;28;20283;-76
2022/01/16 07:17:28;;;;;;;33.47;19.42;;;3.50;75.80;;;-142.21;100.00;112049.66;4988681;28;20303;-75
2022/01/16 07:19:55;;;;;;;28.52;18.75;;;3.50;75.50;;;-142.21;100.00;112049.66;4990913;28;20230;-75
2022/01/16 07:22:24;;;;;;;27.10;18.40;;;3.50;75.20;;;-142.21;100.00;112049.66;4991724;28;20292;-75
2022/01/16 07:24:52;;;;;;;32.30;19.33;;;3.50;75.40;;;-142.21;100.00;112049.66;4992358;28;20207;-75
2022/01/16 07:27:20;;;;;;;31.08;19.88;;;3.40;75.40;;;-142.21;100.00;112049.66;4991732;28;20226;-74
2022/01/16 07:29:47;;;;;;;34.70;20.10;;;3.50;75.40;;;-142.21;100.00;112049.66;4995892;28;20264;-75
2022/01/16 07:32:14;;;;;;;34.25;20.45;;;3.50;75.30;;;-142.21;100.00;112049.66;4977428;28;20205;-75
2022/01/16 07:34:42;;;;;;;32.22;19.50;;;3.50;75.50;;;-142.21;100.00;112049.66;4975988;28;20234;-76
2022/01/16 07:37:09;;;;;;;33.05;20.13;;;3.40;75.50;;;-142.21;100.00;112049.66;4993391;28;20200;-75
2022/01/16 07:39:38;;;;;;;35.75;19.58;;;3.50;75.40;;;-142.21;100.00;112049.66;4985724;28;20207;-74
2022/01/16 07:42:06;;;;;;;31.02;19.40;;;3.50;75.40;;;-142.21;100.00;112049.66;4990172;28;20216;-75
2022/01/16 07:44:33;;;;;;;35.97;20.63;;;3.50;75.60;;;-142.21;100.00;112049.66;4993135;28;20252;-75
2022/01/16 07:47:01;;;;;;;37.85;21.90;;;3.50;75.40;;;-142.21;100.00;112049.66;4995893;28;20266;-73
2022/01/16 07:49:29;;;;;;;39.95;20.98;;;3.50;75.70;;;-142.21;100.00;112049.66;4993162;28;20294;-76
2022/01/16 07:51:56;;;;;;;38.35;22.25;;;3.50;76.80;;;-142.21;100.00;112049.66;4994904;28;20269;-76
2022/01/16 07:54:24;;;;;;;37.78;22.70;;;3.50;76.80;;;-142.21;100.00;112049.66;4994796;28;20327;-73
2022/01/16 07:56:52;;;;;;;40.72;23.40;;;3.60;76.80;;;-142.21;100.00;112049.66;4995174;28;20326;-75
2022/01/16 07:59:19;;;;;;;38.03;22.00;;;3.60;76.60;;;-142.21;100.00;112049.66;4976297;28;20207;-75
2022/01/16 08:01:47;;;;;;;42.03;23.63;;;3.60;76.50;;;-142.21;100.00;112049.66;4978534;28;20207;-77
2022/01/16 08:04:14;;;;;;;45.20;24.60;;;3.60;77.10;;;-142.21;100.00;112049.66;4995767;28;20243;-76
2022/01/16 08:06:41;;;;;;;39.55;23.52;;;3.60;77.00;;;-142.21;100.00;112049.66;4983770;28;20230;-74
2022/01/16 08:09:08;;;;;;;37.50;22.45;;;3.70;77.00;;;-142.21;100.00;112049.66;4994759;28;20206;-73
2022/01/16 08:11:36;;;;;;;38.92;23.25;;;3.70;77.00;;;-142.21;100.00;112049.66;4977209;28;20219;-76
2022/01/16 08:14:04;;;;;;;42.83;23.75;;;3.80;77.10;;;-142.21;100.00;112049.66;4994359;28;20200;-76
2022/01/16 08:16:31;;;;;;;42.75;22.85;;;3.80;76.90;;;-142.21;100.00;112049.66;4994741;28;20212;-75
2022/01/16 08:19:00;;;;;;;50.70;24.33;;;3.80;77.00;;;-142.21;100.00;112049.66;4994156;28;20563;-74
2022/01/16 08:21:27;;;;;;;47.20;24.00;;;3.80;77.30;;;-142.21;100.00;112049.66;4994339;28;20216;-74
2022/01/16 08:23:54;;;;;;;42.17;24.42;;;3.80;77.20;;;-142.21;100.00;112049.66;4994210;28;20239;-75
2022/01/16 08:26:21;;;;;;;47.85;25.80;;;3.90;77.10;;;-142.21;100.00;112049.66;4994745;28;20279;-74
2022/01/16 08:28:48;;;;;;;50.20;26.38;;;3.90;77.20;;;-142.21;100.00;112049.66;4994896;28;20206;-75
2022/01/16 08:31:17;;;;;;;43.60;25.55;;;3.90;77.30;;;-142.21;100.00;112049.66;4994834;28;20701;-75
2022/01/16 08:33:44;;;;;;;48.22;25.92;;;3.90;77.30;;;-142.21;100.00;112049.66;4994674;28;20279;-73
2022/01/16 08:36:11;;;;;;;51.78;27.83;;;3.90;77.90;;;-142.21;100.00;112049.66;4976793;28;20204;-75
2022/01/16 08:38:39;;;;;;;50.60;28.65;;;3.90;77.90;;;-142.21;100.00;112049.66;4994879;28;20645;-75
2022/01/16 08:41:06;;;;;;;46.47;25.48;;;4.00;77.90;;;-142.21;100.00;112049.66;4993668;28;20251;-74
2022/01/16 08:43:33;;;;;;;54.55;27.90;;;4.10;77.50;;;-142.21;100.00;112049.66;4994455;28;20219;-74
2022/01/16 08:46:00;;;;;;;50.28;28.42;;;4.10;77.50;;;-142.21;100.00;112049.66;4990718;28;20284;-75
2022/01/16 08:48:30;;;;;;;54.58;27.63;;;4.20;77.50;;;-142.21;100.00;112049.66;4993778;28;20298;-75
2022/01/16 08:50:58;;;;;;;55.88;27.55;;;4.20;77.60;;;-142.21;100.00;112049.66;4993981;28;20311;-76
2022/01/16 08:53:25;;;;;;;52.42;28.13;;;4.20;77.50;;;-142.21;100.00;112049.66;4993437;28;20770;-75
2022/01/16 08:55:52;;;;;;;50.15;27.90;;;4.20;77.50;;;-142.21;100.00;112049.66;4994161;28;20703;-73
2022/01/16 08:58:20;;;;;;;51.83;29.08;;;4.20;77.50;;;-142.21;100.00;112049.66;4993459;28;20204;-74
2022/01/16 09:00:48;;;;;;;50.55;27.73;;;4.30;77.60;;;-142.21;100.00;112049.66;4994200;28;20279;-74
2022/01/16 09:03:17;;;;;;;46.70;27.00;;;4.30;77.70;;;-142.21;100.00;112049.66;4993846;28;20210;-76
2022/01/16 09:05:46;;;;;;;48.17;27.55;;;4.30;77.50;;;-142.21;100.00;112049.66;4992657;28;20283;-76
2022/01/16 09:08:14;;;;;;;51.25;26.48;;;4.40;77.30;;;-142.21;100.00;112049.66;4992132;28;20206;-75
2022/01/16 09:10:42;;;;;;;42.13;27.17;;;4.40;77.40;;;-142.21;100.00;112049.66;4994157;28;20238;-76
2022/01/16 09:13:11;;;;;;;50.58;27.08;;;4.50;77.20;;;-142.21;100.00;112049.66;4994107;28;20255;-72
2022/01/16 09:15:39;;;;;;;45.22;25.75;;;4.40;77.20;;;-142.21;100.00;112049.66;4993612;28;20239;-75
2022/01/16 09:18:07;;;;;;;40.15;25.25;;;4.40;77.00;;;-142.21;100.00;112049.66;4993892;28;20661;-75
2022/01/16 09:20:35;;;;;;;39.38;26.45;;;4.40;77.00;;;-142.21;100.00;112049.66;4992926;28;20781;-75
2022/01/16 09:23:04;;;;;;;37.40;24.75;;;4.30;76.70;;;-142.21;100.00;112049.66;4994628;28;20242;-76
2022/01/16 09:25:32;;;;;;;40.33;24.17;;;4.40;76.60;;;-142.21;100.00;112049.66;4993338;28;20287;-75
2022/01/16 09:28:00;;;;;;;41.30;25.50;;;4.40;76.70;;;-142.21;100.00;112049.66;4989949;28;20287;-76
2022/01/16 09:30:28;;;;;;;48.15;29.77;;;4.50;76.20;;;-142.21;100.00;112049.66;4987542;28;20715;-75
2022/01/16 09:32:55;;;;;;;48.60;30.48;;;4.50;76.40;;;-142.21;100.00;112049.66;4989899;28;20208;-77
2022/01/16 09:35:23;;;;;;;41.63;27.63;;;4.60;76.30;;;-142.21;100.00;112049.66;4993384;28;20199;-75
2022/01/16 09:37:51;;;;;;;41.40;27.02;;;4.70;76.20;;;-142.21;100.00;112049.66;4978707;28;20245;-75
2022/01/16 09:40:22;;;;;;;34.90;25.33;;;4.70;75.70;;;-142.21;100.00;112049.66;4975021;28;20209;-77
2022/01/16 09:42:52;;;;;;;35.65;24.83;;;4.70;75.80;;;-142.21;100.00;112049.66;4993880;28;20187;-77
2022/01/16 09:45:20;;;;;;;37.53;25.02;;;4.80;75.80;;;-142.21;100.00;112049.66;5003339;28;20240;-76
2022/01/16 09:47:49;;;;;;;42.08;26.02;;;4.70;75.70;;;-142.21;100.00;112049.66;4986299;28;20263;-75
2022/01/16 09:50:21;;;;;;;39.28;26.40;;;4.80;75.60;;;-142.21;100.00;112049.66;4990437;28;20331;-75
2022/01/16 09:52:49;;;;;;;39.20;26.23;;;4.90;75.40;;;-142.21;100.00;112049.66;4992293;28;20203;-75
2022/01/16 09:55:21;;;;;;;41.45;26.20;;;4.90;75.10;;;-142.21;100.00;112049.66;4993087;28;20730;-75
2022/01/16 09:57:49;;;;;;;42.22;26.25;;;4.90;75.10;;;-142.21;100.00;112049.66;4992830;28;20669;-76
2022/01/16 10:00:20;;;;;;;38.67;25.70;;;4.90;75.00;;;-142.21;100.00;112049.66;4992995;28;20231;-80
2022/01/16 10:02:49;;;;;;;39.50;26.77;;;4.90;75.00;;;-142.21;100.00;112049.66;4992200;28;20283;-79
2022/01/16 10:05:26;;;;;;;39.67;26.52;;;4.90;75.00;;;-142.21;100.00;112049.66;4992902;28;20207;-79
2022/01/16 10:07:55;;;;;;;39.10;26.38;;;4.90;74.70;;;-142.21;100.00;112049.66;4991852;28;20250;-77
2022/01/16 10:10:29;;;;;;;37.90;26.52;;;4.90;75.10;;;-142.21;100.00;112049.66;4987397;28;20220;-78
2022/01/16 10:13:04;;;;;;;40.75;27.08;;;5.00;74.80;;;-142.21;100.00;112049.66;4992076;28;20237;-78
2022/01/16 10:15:36;;;;;;;42.75;26.98;;;5.00;74.80;;;-142.21;100.00;112049.66;4992706;28;20199;-77
2022/01/16 10:18:07;;;;;;;41.58;27.58;;;5.00;74.70;;;-142.21;100.00;112049.66;4991937;28;20283;-78
2022/01/16 10:20:47;;;;;;;45.60;29.83;;;4.80;74.70;;;-142.21;100.00;112049.66;4992727;28;20194;-76
2022/01/16 10:23:21;;;;;;;43.47;27.30;;;5.00;75.20;;;-142.21;100.00;112049.66;4982714;28;20527;-79
2022/01/16 10:25:51;;;;;;;42.03;28.67;;;5.00;75.20;;;-142.21;100.00;112049.66;4993439;28;20608;-75